createdAt,value
2023-04-11T00:04:46.754Z,101444.28
2023-04-11T00:09:51.460Z,101437.66
2023-04-11T00:14:55.611Z,101441.06
2023-04-11T00:20:01.829Z,101436.13
2023-04-11T00:25:07.168Z,101423.28
2023-04-11T00:30:10.990Z,101419.31
2023-04-11T00:35:14.141Z,101431.34
2023-04-11T00:40:18.902Z,101430.53
2023-04-11T00:45:22.097Z,101425.50
2023-04-11T00:50:25.425Z,101433.59
2023-04-11T00:55:30.983Z,101437.28
2023-04-11T01:00:35.589Z,101432.59
2023-04-11T01:05:39.290Z,101430.41
2023-04-11T01:10:44.339Z,101425.47
2023-04-11T01:15:47.468Z,101419.75
2023-04-11T01:20:51.273Z,101418.19
2023-04-11T01:25:55.978Z,101413.34
2023-04-11T01:30:59.131Z,101402.25
2023-04-11T01:36:02.325Z,101378.75
2023-04-11T01:41:09.535Z,101362.97
2023-04-11T01:46:13.061Z,101341.94
2023-04-11T01:51:16.186Z,101324.88
2023-04-11T01:56:20.693Z,101331.38
2023-04-11T02:01:24.080Z,101332.19
2023-04-11T02:06:27.838Z,101323.47
2023-04-11T02:11:32.417Z,101332.25
2023-04-11T02:16:37.721Z,101333.66
2023-04-11T02:21:40.883Z,101330.00
2023-04-11T02:26:45.506Z,101324.00
2023-04-11T02:31:50.049Z,101332.44
2023-04-11T02:36:53.380Z,101322.25
2023-04-11T02:41:58.455Z,101321.84
2023-04-11T02:47:01.628Z,101314.78
2023-04-11T02:52:05.364Z,101309.81
2023-04-11T02:57:09.935Z,101316.28
2023-04-11T03:02:13.132Z,101309.72
2023-04-11T03:07:16.362Z,101314.78
2023-04-11T03:12:21.319Z,101318.03
2023-04-11T03:17:24.189Z,101314.44
2023-04-11T03:22:27.360Z,101314.22
2023-04-11T03:27:31.891Z,101309.34
2023-04-11T03:32:35.059Z,101300.91
2023-04-11T03:37:38.240Z,101295.50
2023-04-11T03:42:42.822Z,101285.09
2023-04-11T03:47:46.000Z,101273.31
2023-04-11T03:52:49.277Z,101274.94
2023-04-11T03:57:53.829Z,101274.41
2023-04-11T04:02:57.189Z,101266.84
2023-04-11T04:08:00.534Z,101264.69
2023-04-11T04:13:05.122Z,101260.72
2023-04-11T04:18:08.297Z,101266.41
2023-04-11T04:23:14.094Z,101264.06
2023-04-11T04:28:22.597Z,101258.63
2023-04-11T04:33:27.549Z,101259.16
2023-04-11T04:38:31.011Z,101263.25
2023-04-11T04:43:36.113Z,101258.41
2023-04-11T04:48:39.203Z,101266.94
2023-04-11T04:53:42.804Z,101267.56
2023-04-11T04:58:47.533Z,101255.53
2023-04-11T05:03:59.598Z,101265.78
2023-04-11T05:09:06.272Z,101261.88
2023-04-11T05:14:11.176Z,101254.91
2023-04-11T05:19:14.305Z,101246.69
2023-04-11T05:24:17.503Z,101253.59
2023-04-11T05:29:22.351Z,101250.53
2023-04-11T05:34:25.632Z,101247.25
2023-04-11T05:39:28.933Z,101241.13
2023-04-11T05:44:33.577Z,101238.22
2023-04-11T05:49:36.818Z,101245.31
2023-04-11T05:54:39.994Z,101248.44
2023-04-11T05:59:44.653Z,101254.16
2023-04-11T06:04:47.955Z,101261.91
2023-04-11T06:09:51.668Z,101255.81
2023-04-11T06:14:56.295Z,101242.63
2023-04-11T06:19:59.753Z,101259.69
2023-04-11T06:25:03.100Z,101260.34
2023-04-11T06:30:10.464Z,101264.84
2023-04-11T06:35:13.935Z,101275.34
2023-04-11T06:40:17.505Z,101270.59
2023-04-11T06:45:22.182Z,101272.28
2023-04-11T06:50:25.465Z,101275.25
2023-04-11T06:55:28.655Z,101277.25
2023-04-11T07:00:33.335Z,101287.09
2023-04-11T07:05:39.037Z,101269.78
2023-04-11T07:10:42.842Z,101263.25
2023-04-11T07:15:47.543Z,101264.25
2023-04-11T07:20:52.746Z,101261.63
2023-04-11T07:25:56.008Z,101259.41
2023-04-11T07:31:01.003Z,101264.75
2023-04-11T07:36:04.880Z,101251.22
2023-04-11T07:41:09.699Z,101243.28
2023-04-11T07:46:15.347Z,101239.47
2023-04-11T07:51:19.040Z,101229.97
2023-04-11T07:56:22.391Z,101226.56
2023-04-11T08:01:27.608Z,101223.19
2023-04-11T08:06:31.735Z,101226.16
2023-04-11T08:11:35.299Z,101223.25
2023-04-11T08:16:40.012Z,101225.38
2023-04-11T08:21:43.354Z,101222.72
2023-04-11T08:26:46.744Z,101215.72
2023-04-11T08:31:51.418Z,101206.09
2023-04-11T08:36:54.630Z,101213.09
2023-04-11T08:41:57.890Z,101210.84
2023-04-11T08:47:02.527Z,101210.19
2023-04-11T08:52:06.008Z,101215.66
2023-04-11T08:57:09.232Z,101217.00
2023-04-11T09:02:13.988Z,101221.53
2023-04-11T09:07:17.477Z,101209.19
2023-04-11T09:12:29.600Z,101224.50
2023-04-11T09:17:42.509Z,101220.19
2023-04-11T09:22:46.108Z,101228.94
2023-04-11T09:27:49.744Z,101220.84
2023-04-11T09:32:55.682Z,101227.19
2023-04-11T09:38:00.808Z,101230.06
2023-04-11T09:43:05.382Z,101245.94
2023-04-11T09:48:10.132Z,101246.53
2023-04-11T09:53:13.731Z,101256.75
2023-04-11T09:58:17.788Z,101248.94
2023-04-11T10:03:24.032Z,101236.66
2023-04-11T10:08:32.821Z,101238.22
2023-04-11T10:13:43.015Z,101221.59
2023-04-11T10:19:21.960Z,101229.22
2023-04-11T10:24:26.872Z,101220.41
2023-04-11T10:29:51.395Z,101208.97
2023-04-11T10:35:31.218Z,101196.81
2023-04-11T10:40:36.126Z,101194.38
2023-04-11T10:45:40.486Z,101188.22
2023-04-11T10:50:45.414Z,101171.91
2023-04-11T10:55:51.484Z,101170.19
2023-04-11T11:01:26.321Z,101171.31
2023-04-11T11:06:47.249Z,101160.97
2023-04-11T11:12:08.805Z,101162.38
2023-04-11T11:17:13.907Z,101154.72
2023-04-11T11:22:17.688Z,101156.94
2023-04-11T11:27:23.005Z,101160.06
2023-04-11T11:32:29.063Z,101155.22
2023-04-11T11:37:32.555Z,101155.22
2023-04-11T11:42:37.783Z,101147.00
2023-04-11T11:47:44.520Z,101139.44
2023-04-11T11:52:49.003Z,101147.03
2023-04-11T11:57:53.654Z,101138.38
2023-04-11T12:02:59.874Z,101127.94
2023-04-11T12:08:04.938Z,101129.22
2023-04-11T12:13:18.056Z,101120.91
2023-04-11T12:18:25.246Z,101108.50
2023-04-11T12:23:28.364Z,101103.38
2023-04-11T12:28:32.889Z,101099.22
2023-04-11T12:33:36.252Z,101081.69
2023-04-11T12:38:39.465Z,101076.72
2023-04-11T12:43:44.000Z,101077.34
2023-04-11T12:48:47.136Z,101070.16
2023-04-11T12:53:52.889Z,101061.31
2023-04-11T12:59:08.514Z,101065.13
2023-04-11T13:04:15.839Z,101063.03
2023-04-11T13:09:21.962Z,101052.94
2023-04-11T13:14:32.949Z,101043.09
2023-04-11T13:19:40.513Z,101041.91
2023-04-11T13:24:43.673Z,101042.34
2023-04-11T13:29:55.364Z,101040.94
2023-04-11T13:35:03.395Z,101033.66
2023-04-11T13:40:14.482Z,101038.03
2023-04-11T13:45:21.783Z,101037.25
2023-04-11T13:50:28.045Z,101043.09
2023-04-11T13:55:32.332Z,101032.00
2023-04-11T14:00:37.122Z,101028.94
2023-04-11T14:05:40.543Z,101018.34
2023-04-11T14:10:44.303Z,101019.56
2023-04-11T14:15:54.779Z,100997.09
2023-04-11T14:21:08.960Z,101006.34
2023-04-11T14:26:12.267Z,100996.34
2023-04-11T14:31:17.049Z,100989.53
2023-04-11T14:36:20.442Z,100988.19
2023-04-11T14:41:23.768Z,100988.78
2023-04-11T14:46:28.651Z,100993.91
2023-04-11T14:51:31.937Z,100985.38
2023-04-11T14:56:35.223Z,100975.59
2023-04-11T15:01:40.533Z,100970.78
2023-04-11T15:06:43.932Z,100961.97
2023-04-11T15:11:47.454Z,100957.66
2023-04-11T15:16:52.107Z,100952.94
2023-04-11T15:21:55.249Z,100945.63
2023-04-11T15:26:58.414Z,100939.22
2023-04-11T15:32:04.547Z,100937.72
2023-04-11T15:37:11.525Z,100941.47
2023-04-11T15:42:14.661Z,100926.44
2023-04-11T15:47:19.285Z,100923.31
2023-04-11T15:52:22.512Z,100923.66
2023-04-11T15:57:27.516Z,100911.47
2023-04-11T16:02:32.233Z,100903.31
2023-04-11T16:07:35.524Z,100899.69
2023-04-11T16:12:38.660Z,100898.47
2023-04-11T16:17:43.184Z,100890.31
2023-04-11T16:22:47.466Z,100876.84
2023-04-11T16:27:51.708Z,100888.75
2023-04-11T16:32:56.576Z,100888.38
2023-04-11T16:37:59.768Z,100893.38
2023-04-11T16:43:02.906Z,100879.88
2023-04-11T16:48:09.515Z,100883.00
2023-04-11T16:53:12.648Z,100893.41
2023-04-11T16:58:15.774Z,100892.06
2023-04-11T17:03:21.864Z,100899.56
2023-04-11T17:08:26.600Z,100904.78
2023-04-11T17:13:29.621Z,100895.59
2023-04-11T17:18:34.177Z,100898.81
2023-04-11T17:23:56.590Z,100896.63
2023-04-11T17:29:00.118Z,100903.44
2023-04-11T17:34:04.651Z,100892.16
2023-04-11T17:39:07.899Z,100908.50
2023-04-11T17:44:11.076Z,100896.50
2023-04-11T17:49:16.381Z,100899.38
2023-04-11T17:54:19.543Z,100896.28
2023-04-11T17:59:24.160Z,100900.88
2023-04-11T18:04:29.124Z,100898.59
2023-04-11T18:09:32.394Z,100901.34
2023-04-11T18:14:35.573Z,100906.69
2023-04-11T18:19:40.065Z,100902.31
2023-04-11T18:24:43.206Z,100890.69
2023-04-11T18:29:47.127Z,100889.84
2023-04-11T18:34:52.150Z,100887.00
2023-04-11T18:39:55.625Z,100883.94
2023-04-11T18:45:00.186Z,100872.31
2023-04-11T18:50:05.701Z,100871.47
2023-04-11T18:55:10.151Z,100876.31
2023-04-11T19:00:18.551Z,100873.91
2023-04-11T19:05:25.417Z,100865.03
2023-04-11T19:10:28.898Z,100889.66
2023-04-11T19:15:32.046Z,100884.91
2023-04-11T19:20:38.809Z,100892.31
2023-04-11T19:25:42.931Z,100890.16
2023-04-11T19:30:46.043Z,100902.00
2023-04-11T19:35:50.616Z,100907.59
2023-04-11T19:40:53.828Z,100914.91
2023-04-11T19:45:57.041Z,100913.84
2023-04-11T19:51:02.870Z,100923.28
2023-04-11T19:56:08.013Z,100929.63
2023-04-11T20:01:11.178Z,100925.25
2023-04-11T20:06:15.800Z,100931.59
2023-04-11T20:11:20.413Z,100926.63
2023-04-11T20:16:25.299Z,100932.53
2023-04-11T20:21:29.907Z,100935.47
2023-04-11T20:26:33.093Z,100915.41
2023-04-11T20:31:36.405Z,100929.03
2023-04-11T20:36:40.951Z,100926.72
2023-04-11T20:41:44.070Z,100930.16
2023-04-11T20:46:48.112Z,100935.22
2023-04-11T20:51:53.774Z,100938.13
2023-04-11T20:56:57.020Z,100931.69
2023-04-11T21:02:00.401Z,100924.41
2023-04-11T21:07:05.003Z,100921.03
2023-04-11T21:12:08.359Z,100915.81
2023-04-11T21:17:11.490Z,100920.09
2023-04-11T21:22:16.063Z,100922.69
2023-04-11T21:27:19.155Z,100932.72
2023-04-11T21:32:22.296Z,100921.72
2023-04-11T21:37:26.909Z,100919.94
2023-04-11T21:42:30.111Z,100914.13
2023-04-11T21:47:33.284Z,100914.38
2023-04-11T21:52:37.837Z,100918.75
2023-04-11T21:57:41.060Z,100909.84
2023-04-11T22:02:44.441Z,100905.16
2023-04-11T22:07:51.517Z,100902.41
2023-04-11T22:12:54.842Z,100897.34
2023-04-11T22:17:58.042Z,100902.72
2023-04-11T22:23:02.589Z,100897.81
2023-04-11T22:28:05.981Z,100893.28
2023-04-11T22:33:09.180Z,100894.63
2023-04-11T22:38:14.173Z,100903.50
2023-04-11T22:43:17.654Z,100898.00
2023-04-11T22:48:20.836Z,100902.66
2023-04-11T22:53:25.446Z,100903.19
2023-04-11T22:58:28.688Z,100887.31
2023-04-11T23:03:31.873Z,100890.19
2023-04-11T23:08:36.494Z,100870.88
2023-04-11T23:13:39.609Z,100883.59
2023-04-11T23:18:42.728Z,100876.25
2023-04-11T23:23:47.234Z,100878.28
2023-04-11T23:28:50.676Z,100862.91
2023-04-11T23:33:54.021Z,100863.88
2023-04-11T23:38:58.562Z,100855.66
2023-04-11T23:44:01.667Z,100857.09
2023-04-11T23:49:05.060Z,100846.56
2023-04-11T23:54:09.593Z,100851.00
2023-04-11T23:59:12.742Z,100845.31
